Time;durP1;ratioP1;P1;durP2;ratioP2;P2;SDS_P1;SDS_P2;PMS_P1;PMS_P2;Temp;Humidity;BMP_temperature;BMP_pressure;BME280_temperature;BME280_humidity;BME280_pressure;Samples;Min_cycle;Max_cycle;Signal;HPM_P1;HPM_P2
2022/10/04 00:00:49;;;;;;;9.80;4.33;;;;;;;;;;4333697;33;20643;-88
2022/10/04 00:03:22;;;;;;;10.57;5.27;;;;;;;;;;4334147;33;20221;-88
2022/10/04 00:05:53;;;;;;;15.33;4.83;;;;;;;;;;4333904;33;20218;-88
2022/10/04 00:08:27;;;;;;;7.83;4.10;;;;;;;;;;4334141;33;20227;-88
2022/10/04 00:11:14;;;;;;;7.77;5.07;;;;;;;;;;4333329;33;20206;-89
2022/10/04 00:13:46;;;;;;;7.23;4.17;;;;;;;;;;4334368;33;20199;-88
2022/10/04 00:16:22;;;;;;;7.10;4.53;;;;;;;;;;4333678;33;20285;-88
2022/10/04 00:18:50;;;;;;;5.37;3.27;;;;;;;;;;4333868;33;20269;-87
2022/10/04 00:21:17;;;;;;;7.10;3.13;;;;;;;;;;4333619;33;20337;-88
2022/10/04 00:23:47;;;;;;;5.47;3.10;;;;;;;;;;4333858;33;20203;-89
2022/10/04 00:27:09;;;;;;;3.83;2.77;;;;;;;;;;4333077;33;20609;-87
2022/10/04 00:29:38;;;;;;;5.23;3.00;;;;;;;;;;4333885;33;20278;-87
2022/10/04 00:32:30;;;;;;;4.07;2.90;;;;;;;;;;4333243;33;20589;-87
2022/10/04 00:34:58;;;;;;;5.67;3.83;;;;;;;;;;4334067;33;20325;-88
2022/10/04 00:37:26;;;;;;;4.77;3.43;;;;;;;;;;4333694;33;20218;-88
2022/10/04 00:40:01;;;;;;;7.77;3.20;;;;;;;;;;4333028;33;20624;-87
2022/10/04 00:42:40;;;;;;;4.93;3.23;;;;;;;;;;4333444;33;20214;-88
2022/10/04 00:45:14;;;;;;;5.50;3.47;;;;;;;;;;4333754;33;20274;-88
2022/10/04 00:48:06;;;;;;;7.60;4.37;;;;;;;;;;4332975;33;20218;-88
2022/10/04 00:50:40;;;;;;;4.83;3.50;;;;;;;;;;4333402;33;20211;-88
2022/10/04 00:53:18;;;;;;;7.67;4.00;;;;;;;;;;4333403;33;20270;-89
2022/10/04 00:55:50;;;;;;;5.57;3.50;;;;;;;;;;4333252;33;20211;-88
2022/10/04 00:58:22;;;;;;;7.57;3.70;;;;;;;;;;4333709;33;20258;-89
2022/10/04 01:00:52;;;;;;;10.00;4.90;;;;;;;;;;4332690;33;20554;-87
2022/10/04 01:03:26;;;;;;;10.27;5.50;;;;;;;;;;4332746;33;20203;-89
2022/10/04 01:05:58;;;;;;;12.20;5.47;;;;;;;;;;4333021;33;20274;-90
2022/10/04 01:08:30;;;;;;;7.87;4.20;;;;;;;;;;4333485;33;20203;-89
2022/10/04 01:11:00;;;;;;;7.10;3.87;;;;;;;;;;4333040;33;20265;-88
2022/10/04 01:13:31;;;;;;;7.13;4.47;;;;;;;;;;4333278;33;20277;-88
2022/10/04 01:16:01;;;;;;;7.27;3.80;;;;;;;;;;4332831;33;20211;-88
2022/10/04 01:18:31;;;;;;;14.07;6.03;;;;;;;;;;4332445;33;20203;-89
2022/10/04 01:21:00;;;;;;;7.37;5.47;;;;;;;;;;4332756;33;20222;-87
2022/10/04 01:23:42;;;;;;;8.30;5.40;;;;;;;;;;4332103;33;20655;-88
2022/10/04 01:26:40;;;;;;;10.77;5.93;;;;;;;;;;4332565;33;20233;-88
2022/10/04 01:29:10;;;;;;;6.27;4.30;;;;;;;;;;4332823;33;20270;-88
2022/10/04 01:31:40;;;;;;;7.47;4.50;;;;;;;;;;4332518;33;20332;-88
2022/10/04 01:34:08;;;;;;;5.63;4.10;;;;;;;;;;4332870;33;20300;-89
2022/10/04 01:36:37;;;;;;;7.50;4.33;;;;;;;;;;4332504;33;20529;-89
2022/10/04 01:39:06;;;;;;;7.00;3.07;;;;;;;;;;4332729;33;20208;-89
2022/10/04 01:41:43;;;;;;;6.40;3.20;;;;;;;;;;4332402;33;20241;-88
2022/10/04 01:44:16;;;;;;;6.20;3.70;;;;;;;;;;4332705;33;20253;-89
2022/10/04 01:46:44;;;;;;;5.13;3.40;;;;;;;;;;4332356;33;20230;-88
2022/10/04 01:49:16;;;;;;;5.70;4.13;;;;;;;;;;4332862;33;20274;-88
2022/10/04 01:51:49;;;;;;;10.20;4.00;;;;;;;;;;4332539;33;20242;-87
2022/10/04 01:54:30;;;;;;;9.20;3.73;;;;;;;;;;4332601;33;20223;-88
2022/10/04 01:57:02;;;;;;;7.43;3.40;;;;;;;;;;4332447;33;20297;-88
2022/10/04 01:59:36;;;;;;;7.50;3.70;;;;;;;;;;4332656;33;20222;-88
2022/10/04 02:02:08;;;;;;;10.33;4.87;;;;;;;;;;4332273;33;20652;-89
2022/10/04 02:04:38;;;;;;;8.13;4.73;;;;;;;;;;4332667;33;20203;-88
2022/10/04 02:07:12;;;;;;;10.47;5.23;;;;;;;;;;4332106;33;20223;-88
2022/10/04 02:09:43;;;;;;;6.33;4.60;;;;;;;;;;4332544;33;20270;-87
2022/10/04 02:12:11;;;;;;;9.40;4.47;;;;;;;;;;4331776;33;20219;-88
2022/10/04 02:14:43;;;;;;;7.40;4.63;;;;;;;;;;4332086;33;20279;-88
2022/10/04 02:17:12;;;;;;;9.20;5.23;;;;;;;;;;4332670;33;20281;-88
2022/10/04 02:19:41;;;;;;;12.03;4.80;;;;;;;;;;4332281;33;20214;-88
2022/10/04 02:22:10;;;;;;;9.87;4.87;;;;;;;;;;4332103;33;20237;-87
2022/10/04 02:24:42;;;;;;;16.47;6.27;;;;;;;;;;4332341;33;20292;-88
2022/10/04 02:27:09;;;;;;;6.70;4.53;;;;;;;;;;4332542;33;20223;-89
2022/10/04 02:29:36;;;;;;;9.43;5.40;;;;;;;;;;4332671;33;20199;-88
2022/10/04 02:34:49;;;;;;;8.17;3.83;;;;;;;;;;4333386;33;20213;-88
2022/10/04 02:37:17;;;;;;;12.43;3.97;;;;;;;;;;4335347;33;20545;-88
2022/10/04 02:39:49;;;;;;;3.07;2.57;;;;;;;;;;4335603;33;20215;-87
2022/10/04 02:42:20;;;;;;;4.50;2.03;;;;;;;;;;4335320;33;20233;-88
2022/10/04 02:44:51;;;;;;;2.13;1.73;;;;;;;;;;4335142;33;20305;-88
2022/10/04 02:47:21;;;;;;;3.63;2.13;;;;;;;;;;4335352;33;20601;-88
2022/10/04 02:49:51;;;;;;;5.70;2.13;;;;;;;;;;4334549;33;20637;-88
2022/10/04 02:52:23;;;;;;;13.33;2.27;;;;;;;;;;4335135;33;20530;-88
2022/10/04 02:55:01;;;;;;;5.90;2.30;;;;;;;;;;4336080;33;20269;-89
2022/10/04 02:57:31;;;;;;;4.80;2.50;;;;;;;;;;4339574;33;20237;-85
2022/10/04 03:00:09;;;;;;;3.37;2.50;;;;;;;;;;4345600;33;20325;-83
2022/10/04 03:02:36;;;;;;;4.27;2.70;;;;;;;;;;4346555;33;20226;-83
2022/10/04 03:05:07;;;;;;;3.53;2.40;;;;;;;;;;4341723;33;20286;-87
2022/10/04 03:07:36;;;;;;;3.77;2.50;;;;;;;;;;4336050;33;20238;-88
2022/10/04 03:10:08;;;;;;;5.80;2.97;;;;;;;;;;4336879;33;20211;-88
2022/10/04 03:12:36;;;;;;;4.00;2.00;;;;;;;;;;4334464;33;20222;-89
2022/10/04 03:15:03;;;;;;;4.73;3.03;;;;;;;;;;4335050;33;20254;-88
2022/10/04 03:17:31;;;;;;;4.63;3.27;;;;;;;;;;4335039;33;20239;-89
2022/10/04 03:19:59;;;;;;;3.70;3.27;;;;;;;;;;4334802;33;20215;-88
2022/10/04 03:22:26;;;;;;;9.43;3.00;;;;;;;;;;4334562;33;20219;-88
2022/10/04 03:24:56;;;;;;;8.57;3.90;;;;;;;;;;4334235;33;20227;-90
2022/10/04 03:27:28;;;;;;;11.93;2.90;;;;;;;;;;4334329;33;20223;-87
2022/10/04 03:29:58;;;;;;;4.53;2.80;;;;;;;;;;4334466;33;20228;-88
2022/10/04 03:32:26;;;;;;;3.90;2.63;;;;;;;;;;4334380;33;20277;-87
2022/10/04 03:34:57;;;;;;;9.47;3.03;;;;;;;;;;4334408;33;20273;-88
2022/10/04 03:37:27;;;;;;;4.33;2.90;;;;;;;;;;4334489;33;20215;-87
2022/10/04 03:39:56;;;;;;;4.10;3.10;;;;;;;;;;4333759;33;20231;-87
2022/10/04 03:42:27;;;;;;;5.03;2.83;;;;;;;;;;4333808;33;20711;-89
2022/10/04 03:44:57;;;;;;;5.63;2.80;;;;;;;;;;4334015;33;20230;-88
2022/10/04 03:47:27;;;;;;;12.03;4.33;;;;;;;;;;4333541;33;20241;-88
2022/10/04 03:49:57;;;;;;;7.03;2.70;;;;;;;;;;4334325;33;20225;-88
2022/10/04 03:52:27;;;;;;;8.07;3.53;;;;;;;;;;4334020;33;20639;-89
2022/10/04 03:55:01;;;;;;;5.30;3.20;;;;;;;;;;4333654;33;20199;-88
2022/10/04 03:57:30;;;;;;;6.60;3.53;;;;;;;;;;4334103;33;20703;-88
2022/10/04 03:59:58;;;;;;;16.63;3.83;;;;;;;;;;4333707;33;20349;-88
2022/10/04 04:02:32;;;;;;;9.13;3.37;;;;;;;;;;4334134;33;20211;-88
2022/10/04 04:05:07;;;;;;;7.73;3.73;;;;;;;;;;4334168;33;20313;-88
2022/10/04 04:07:39;;;;;;;9.33;3.50;;;;;;;;;;4334092;33;20246;-88
2022/10/04 04:10:17;;;;;;;7.27;3.87;;;;;;;;;;4334114;33;20214;-88
2022/10/04 04:12:48;;;;;;;10.73;3.53;;;;;;;;;;4333927;33;20238;-88
2022/10/04 04:15:16;;;;;;;17.03;3.63;;;;;;;;;;4333534;33;20573;-88
2022/10/04 04:17:45;;;;;;;9.17;4.23;;;;;;;;;;4333850;33;20625;-88
2022/10/04 04:20:25;;;;;;;8.00;4.43;;;;;;;;;;4333553;33;20605;-88
2022/10/04 04:23:04;;;;;;;12.37;6.17;;;;;;;;;;4333923;33;20237;-87
2022/10/04 04:25:34;;;;;;;16.77;8.20;;;;;;;;;;4333768;33;20211;-87
2022/10/04 04:28:11;;;;;;;14.10;6.13;;;;;;;;;;4333812;33;20334;-88
2022/10/04 04:30:39;;;;;;;23.97;6.80;;;;;;;;;;4333770;33;20296;-89
2022/10/04 04:33:21;;;;;;;19.30;10.87;;;;;;;;;;4332941;33;20227;-86
2022/10/04 04:35:48;;;;;;;25.60;14.07;;;;;;;;;;4333137;33;20292;-87
2022/10/04 04:38:19;;;;;;;36.87;14.10;;;;;;;;;;4333396;33;20219;-88
2022/10/04 04:40:46;;;;;;;23.17;11.40;;;;;;;;;;4333226;33;20207;-88
2022/10/04 04:43:18;;;;;;;15.00;9.60;;;;;;;;;;4333113;33;20211;-88
2022/10/04 04:45:48;;;;;;;17.53;8.23;;;;;;;;;;4332612;33;20601;-88
2022/10/04 04:48:17;;;;;;;20.13;10.80;;;;;;;;;;4332910;33;20555;-88
2022/10/04 04:50:49;;;;;;;17.90;12.57;;;;;;;;;;4332579;33;20215;-89
2022/10/04 04:53:22;;;;;;;19.23;11.43;;;;;;;;;;4333449;33;20211;-88
2022/10/04 04:55:52;;;;;;;23.70;11.43;;;;;;;;;;4332945;33;20270;-89
2022/10/04 04:58:23;;;;;;;17.23;11.50;;;;;;;;;;4333440;33;20271;-88
2022/10/04 05:00:58;;;;;;;21.23;11.77;;;;;;;;;;4332968;33;20238;-87
2022/10/04 05:03:28;;;;;;;23.83;15.03;;;;;;;;;;4333114;33;20325;-88
2022/10/04 05:05:57;;;;;;;28.87;15.20;;;;;;;;;;4331828;33;20242;-88
2022/10/04 05:08:26;;;;;;;16.33;12.70;;;;;;;;;;4332699;33;20241;-88
2022/10/04 05:11:04;;;;;;;15.53;12.37;;;;;;;;;;4332748;33;20270;-88
2022/10/04 05:13:39;;;;;;;22.23;13.77;;;;;;;;;;4332830;33;20202;-88
2022/10/04 05:16:13;;;;;;;26.30;12.80;;;;;;;;;;4332844;33;20234;-88
2022/10/04 05:18:39;;;;;;;22.10;10.83;;;;;;;;;;4333031;33;20203;-87
2022/10/04 05:21:13;;;;;;;19.67;10.80;;;;;;;;;;4332424;33;20245;-88
2022/10/04 05:23:40;;;;;;;15.80;10.27;;;;;;;;;;4333342;33;20211;-87
2022/10/04 05:26:11;;;;;;;14.23;9.50;;;;;;;;;;4332580;33;20557;-88
2022/10/04 05:28:40;;;;;;;15.80;9.17;;;;;;;;;;4333115;33;20199;-88
2022/10/04 05:31:28;;;;;;;15.57;8.70;;;;;;;;;;4332442;33;20277;-88
2022/10/04 05:33:58;;;;;;;10.87;9.37;;;;;;;;;;4332927;33;20219;-89
2022/10/04 05:36:51;;;;;;;16.67;10.63;;;;;;;;;;4332917;33;20223;-89
2022/10/04 05:39:27;;;;;;;16.70;9.17;;;;;;;;;;4333127;33;20261;-89
2022/10/04 05:42:00;;;;;;;20.50;8.57;;;;;;;;;;4332574;33;20215;-89
2022/10/04 05:44:31;;;;;;;18.67;11.67;;;;;;;;;;4333027;33;20211;-89
2022/10/04 05:47:00;;;;;;;26.83;9.63;;;;;;;;;;4332642;33;20237;-89
2022/10/04 05:49:31;;;;;;;17.43;10.33;;;;;;;;;;4332965;33;20215;-90
2022/10/04 05:52:00;;;;;;;26.77;12.83;;;;;;;;;;4332374;33;20319;-89
2022/10/04 05:54:30;;;;;;;29.93;15.77;;;;;;;;;;4332796;33;20545;-90
2022/10/04 05:57:27;;;;;;;16.17;9.40;;;;;;;;;;4332462;33;20586;-88
2022/10/04 06:00:08;;;;;;;13.90;7.53;;;;;;;;;;4332525;33;20348;-89
2022/10/04 06:02:53;;;;;;;14.47;6.67;;;;;;;;;;4332396;33;20215;-87
2022/10/04 06:05:25;;;;;;;6.77;4.73;;;;;;;;;;4333126;33;20284;-89
2022/10/04 06:07:58;;;;;;;11.17;5.70;;;;;;;;;;4332490;33;20214;-89
2022/10/04 06:11:09;;;;;;;17.90;6.13;;;;;;;;;;4335490;33;20222;-88
2022/10/04 06:13:59;;;;;;;14.83;6.33;;;;;;;;;;4329566;33;20253;-88
2022/10/04 06:16:40;;;;;;;10.20;5.23;;;;;;;;;;4337131;33;20564;-90
2022/10/04 06:19:22;;;;;;;12.13;5.90;;;;;;;;;;4337372;33;20286;-86
2022/10/04 06:22:11;;;;;;;10.30;5.10;;;;;;;;;;4336898;33;20303;-88
2022/10/04 06:24:41;;;;;;;8.13;5.10;;;;;;;;;;4340934;33;20286;-86
2022/10/04 06:27:15;;;;;;;8.53;5.50;;;;;;;;;;4349270;33;20291;-86
2022/10/04 06:29:47;;;;;;;6.17;5.17;;;;;;;;;;4349395;33;20229;-87
2022/10/04 06:32:46;;;;;;;9.57;4.80;;;;;;;;;;4349098;33;20257;-86
2022/10/04 06:35:41;;;;;;;13.63;5.53;;;;;;;;;;4349446;33;20203;-87
2022/10/04 06:38:32;;;;;;;8.03;4.97;;;;;;;;;;4338695;33;20289;-89
2022/10/04 06:41:30;;;;;;;10.07;6.37;;;;;;;;;;4337718;33;20692;-88
2022/10/04 06:44:19;;;;;;;18.73;7.20;;;;;;;;;;4320687;33;20576;-87
2022/10/04 06:46:49;;;;;;;12.50;8.03;;;;;;;;;;4334481;33;20548;-88
2022/10/04 06:49:33;;;;;;;18.67;11.50;;;;;;;;;;4334725;33;20225;-88
2022/10/04 06:52:34;;;;;;;12.80;6.73;;;;;;;;;;4334646;33;20282;-88
2022/10/04 06:55:32;;;;;;;9.60;6.73;;;;;;;;;;4334120;33;20240;-87
2022/10/04 06:58:13;;;;;;;7.83;5.53;;;;;;;;;;4333868;33;20242;-88
2022/10/04 07:00:49;;;;;;;21.30;5.67;;;;;;;;;;4334122;33;20711;-89
2022/10/04 07:03:22;;;;;;;10.10;5.67;;;;;;;;;;4334100;33;20273;-88
2022/10/04 07:05:54;;;;;;;12.37;6.13;;;;;;;;;;4335888;33;20211;-88
2022/10/04 07:08:32;;;;;;;15.50;7.47;;;;;;;;;;4335414;33;20684;-89
2022/10/04 07:11:05;;;;;;;16.23;7.27;;;;;;;;;;4335179;33;20530;-88
2022/10/04 07:13:41;;;;;;;23.30;7.53;;;;;;;;;;4335101;33;20211;-89
2022/10/04 07:16:18;;;;;;;12.63;7.57;;;;;;;;;;4333767;33;20302;-88
2022/10/04 07:18:55;;;;;;;9.23;6.50;;;;;;;;;;4334770;33;20203;-89
2022/10/04 07:21:27;;;;;;;7.17;4.50;;;;;;;;;;4333716;33;20227;-90
2022/10/04 07:24:00;;;;;;;13.13;5.20;;;;;;;;;;4334775;33;20203;-90
2022/10/04 07:26:33;;;;;;;11.27;5.23;;;;;;;;;;4334900;33;20241;-89
2022/10/04 07:29:22;;;;;;;20.33;8.33;;;;;;;;;;4335239;33;20372;-90
2022/10/04 07:31:52;;;;;;;15.40;9.43;;;;;;;;;;4334141;33;20262;-89
2022/10/04 07:34:24;;;;;;;14.63;8.23;;;;;;;;;;4335753;33;20254;-90
2022/10/04 07:36:57;;;;;;;15.13;11.63;;;;;;;;;;4335125;33;20553;-89
2022/10/04 07:39:29;;;;;;;30.20;12.63;;;;;;;;;;4335784;33;20211;-89
2022/10/04 07:42:00;;;;;;;11.87;7.50;;;;;;;;;;4333964;33;20219;-89
2022/10/04 07:44:35;;;;;;;19.57;6.90;;;;;;;;;;4334128;33;20530;-89
2022/10/04 07:47:09;;;;;;;13.60;6.30;;;;;;;;;;4334806;33;20223;-88
2022/10/04 07:49:42;;;;;;;9.37;5.80;;;;;;;;;;4335270;33;20557;-88
2022/10/04 07:52:51;;;;;;;11.33;5.90;;;;;;;;;;4334107;33;20249;-90
2022/10/04 07:55:24;;;;;;;11.17;5.77;;;;;;;;;;4334070;33;20204;-88
2022/10/04 07:58:09;;;;;;;9.77;3.80;;;;;;;;;;4335744;33;20584;-88
2022/10/04 08:00:44;;;;;;;5.97;3.40;;;;;;;;;;4333689;33;20289;-88
2022/10/04 08:03:22;;;;;;;3.90;3.10;;;;;;;;;;4334483;33;20282;-88
2022/10/04 08:05:54;;;;;;;5.13;2.33;;;;;;;;;;4335035;33;20229;-89
2022/10/04 08:08:40;;;;;;;4.10;2.83;;;;;;;;;;4335126;33;20621;-89
2022/10/04 08:11:29;;;;;;;3.90;2.20;;;;;;;;;;4335360;33;20225;-88
2022/10/04 08:14:03;;;;;;;5.27;2.00;;;;;;;;;;4334255;33;20282;-89
2022/10/04 08:16:36;;;;;;;2.83;2.10;;;;;;;;;;4334198;33;20290;-88
2022/10/04 08:19:22;;;;;;;2.03;1.67;;;;;;;;;;4334185;33;20238;-88
2022/10/04 08:22:00;;;;;;;2.90;2.07;;;;;;;;;;4333580;33;20256;-88
2022/10/04 08:24:33;;;;;;;1.93;1.50;;;;;;;;;;4333905;33;20240;-89
2022/10/04 08:27:25;;;;;;;3.03;1.50;;;;;;;;;;4334502;33;20218;-88
2022/10/04 08:30:03;;;;;;;5.20;2.80;;;;;;;;;;4334067;33;20217;-89
2022/10/04 08:32:41;;;;;;;3.87;1.40;;;;;;;;;;4332829;33;20301;-89
2022/10/04 08:35:32;;;;;;;2.00;1.20;;;;;;;;;;4334069;33;20553;-88
2022/10/04 08:38:21;;;;;;;2.03;1.70;;;;;;;;;;4333758;33;20215;-89
2022/10/04 08:41:25;;;;;;;3.30;1.57;;;;;;;;;;4333766;33;20262;-89
2022/10/04 08:44:41;;;;;;;2.57;1.50;;;;;;;;;;4338190;33;20274;-89
2022/10/04 08:47:49;;;;;;;4.37;1.63;;;;;;;;;;4333556;33;20249;-89
2022/10/04 08:51:02;;;;;;;1.77;1.20;;;;;;;;;;4334004;33;20259;-89
2022/10/04 08:54:08;;;;;;;4.60;1.90;;;;;;;;;;4278474;33;20228;-89
2022/10/04 08:57:05;;;;;;;2.10;1.60;;;;;;;;;;4316357;33;20234;-89
2022/10/04 09:00:12;;;;;;;3.67;1.70;;;;;;;;;;4333488;33;20211;-91
2022/10/04 09:03:03;;;;;;;3.00;1.43;;;;;;;;;;4321456;33;20235;-90
2022/10/04 09:06:08;;;;;;;3.45;1.20;;;;;;;;;;4333101;33;20329;-87
2022/10/04 09:09:18;;;;;;;3.47;1.63;;;;;;;;;;4334490;33;20203;-89
2022/10/04 09:12:12;;;;;;;11.10;1.87;;;;;;;;;;4333954;33;20218;-89
2022/10/04 09:15:03;;;;;;;4.47;1.77;;;;;;;;;;4333880;33;20211;-88
2022/10/04 09:17:39;;;;;;;17.90;1.43;;;;;;;;;;4334611;33;20294;-89
2022/10/04 09:20:21;;;;;;;1.80;1.27;;;;;;;;;;4333659;33;20524;-89
2022/10/04 09:22:56;;;;;;;1.33;1.10;;;;;;;;;;4332261;33;20553;-89
2022/10/04 09:25:49;;;;;;;2.07;1.53;;;;;;;;;;4332934;33;20609;-90
2022/10/04 09:29:04;;;;;;;1.40;1.30;;;;;;;;;;4328237;33;20239;-89
2022/10/04 09:31:48;;;;;;;2.17;1.93;;;;;;;;;;4277000;33;20389;-89
2022/10/04 09:34:40;;;;;;;1.50;1.40;;;;;;;;;;4333399;33;20200;-89
2022/10/04 09:37:33;;;;;;;1.70;1.60;;;;;;;;;;4333400;33;20633;-90
2022/10/04 09:40:50;;;;;;;2.17;1.87;;;;;;;;;;4333389;33;20216;-90
2022/10/04 09:43:57;;;;;;;2.47;2.10;;;;;;;;;;4332828;33;20203;-90
2022/10/04 09:46:50;;;;;;;1.73;1.43;;;;;;;;;;4332430;33;20337;-90
2022/10/04 09:49:35;;;;;;;4.97;1.80;;;;;;;;;;4333298;33;20204;-90
2022/10/04 09:52:18;;;;;;;4.18;1.75;;;;;;;;;;4332828;33;20223;-89
2022/10/04 09:55:04;;;;;;;8.07;2.05;;;;;;;;;;4332392;33;20221;-89
2022/10/04 09:57:58;;;;;;;4.75;2.30;;;;;;;;;;4332186;33;20768;-89
2022/10/04 10:00:32;;;;;;;4.22;1.95;;;;;;;;;;4332492;33;20208;-89
2022/10/04 10:03:41;;;;;;;4.68;1.60;;;;;;;;;;4332651;33;20219;-88
2022/10/04 10:06:39;;;;;;;1.95;1.60;;;;;;;;;;4264732;33;20236;-90
2022/10/04 10:09:18;;;;;;;2.78;1.40;;;;;;;;;;4300692;33;20227;-88
2022/10/04 10:15:13;;;;;;;7.22;4.00;;;;;;;;;;4332796;33;20210;-91
2022/10/04 10:17:48;;;;;;;2.42;1.80;;;;;;;;;;4333438;33;20214;-89
2022/10/04 10:20:35;;;;;;;3.75;1.70;;;;;;;;;;4332971;33;20275;-89
2022/10/04 10:23:30;;;;;;;2.22;1.50;;;;;;;;;;4332032;33;20298;-90
2022/10/04 10:26:21;;;;;;;3.00;1.75;;;;;;;;;;4332958;33;20250;-90
2022/10/04 10:29:10;;;;;;;1.65;1.37;;;;;;;;;;4334005;33;20270;-90
2022/10/04 10:31:58;;;;;;;1.65;1.20;;;;;;;;;;4332313;33;20227;-88
2022/10/04 10:34:47;;;;;;;1.12;1.02;;;;;;;;;;4332695;33;20291;-89
2022/10/04 10:37:23;;;;;;;2.67;1.50;;;;;;;;;;4333183;33;20211;-90
2022/10/04 10:40:32;;;;;;;2.30;1.20;;;;;;;;;;4332765;33;20211;-89
2022/10/04 10:43:19;;;;;;;1.37;1.20;;;;;;;;;;4332560;33;20237;-90
2022/10/04 10:46:09;;;;;;;2.62;1.23;;;;;;;;;;4332137;33;20203;-89
2022/10/04 10:49:05;;;;;;;4.65;1.17;;;;;;;;;;4331921;33;20203;-90
2022/10/04 10:51:58;;;;;;;2.45;1.60;;;;;;;;;;4329045;33;20314;-89
2022/10/04 10:54:58;;;;;;;5.50;1.80;;;;;;;;;;4331889;33;20704;-89
2022/10/04 10:57:57;;;;;;;2.20;1.50;;;;;;;;;;4324351;33;20676;-90
2022/10/04 11:00:25;;;;;;;2.10;1.62;;;;;;;;;;4334767;33;20215;-89
2022/10/04 11:03:34;;;;;;;5.15;1.90;;;;;;;;;;4334723;33;20223;-89
2022/10/04 11:06:40;;;;;;;1.67;1.30;;;;;;;;;;4335001;33;20344;-90
2022/10/04 11:09:30;;;;;;;1.50;1.02;;;;;;;;;;4336393;33;20210;-90
2022/10/04 11:12:39;;;;;;;2.25;1.65;;;;;;;;;;4338229;33;20515;-88
2022/10/04 11:15:35;;;;;;;4.45;1.37;;;;;;;;;;4335745;33;20234;-89
2022/10/04 11:18:26;;;;;;;1.25;1.15;;;;;;;;;;4336350;33;20289;-89
2022/10/04 11:21:34;;;;;;;4.10;1.23;;;;;;;;;;4322902;33;20249;-90
2022/10/04 11:24:20;;;;;;;4.37;1.58;;;;;;;;;;4299561;33;20565;-89
2022/10/04 11:27:15;;;;;;;2.22;1.45;;;;;;;;;;4334546;33;20223;-89
2022/10/04 11:29:57;;;;;;;2.75;1.73;;;;;;;;;;4318160;33;20235;-89
2022/10/04 11:32:55;;;;;;;12.65;2.25;;;;;;;;;;4335428;33;20647;-89
2022/10/04 11:35:54;;;;;;;2.72;1.48;;;;;;;;;;4334737;33;20211;-89
2022/10/04 11:38:51;;;;;;;3.53;1.70;;;;;;;;;;4335147;33;20573;-90
2022/10/04 11:41:28;;;;;;;4.90;1.77;;;;;;;;;;4334772;33;20671;-88
2022/10/04 11:44:25;;;;;;;5.37;1.30;;;;;;;;;;4334863;33;20223;-91
2022/10/04 11:46:59;;;;;;;2.90;1.52;;;;;;;;;;4332558;33;20253;-89
2022/10/04 11:49:43;;;;;;;1.90;1.40;;;;;;;;;;4334618;33;20286;-90
2022/10/04 11:52:45;;;;;;;2.67;1.90;;;;;;;;;;4335199;33;20600;-90
2022/10/04 11:55:34;;;;;;;2.10;1.50;;;;;;;;;;4334702;33;20609;-90
2022/10/04 11:58:09;;;;;;;2.45;1.27;;;;;;;;;;4334976;33;20699;-91
2022/10/04 12:00:59;;;;;;;2.25;1.50;;;;;;;;;;4334235;33;20226;-89
2022/10/04 12:03:52;;;;;;;4.40;1.75;;;;;;;;;;4334584;33;20215;-89
2022/10/04 12:06:40;;;;;;;7.18;1.73;;;;;;;;;;4333974;33;20290;-90
2022/10/04 12:09:18;;;;;;;2.28;1.42;;;;;;;;;;4334250;33;20223;-89
2022/10/04 12:12:37;;;;;;;2.58;1.33;;;;;;;;;;4334084;33;20210;-89
2022/10/04 12:15:37;;;;;;;5.45;1.98;;;;;;;;;;4273164;33;20254;-89
2022/10/04 12:18:44;;;;;;;2.47;1.48;;;;;;;;;;4274030;33;20744;-90
2022/10/04 12:21:49;;;;;;;3.22;1.70;;;;;;;;;;4333354;33;20710;-90
2022/10/04 12:24:34;;;;;;;3.55;1.35;;;;;;;;;;4333528;33;20237;-90
2022/10/04 12:27:18;;;;;;;1.80;1.27;;;;;;;;;;4333542;33;20207;-89
2022/10/04 12:30:20;;;;;;;2.10;1.48;;;;;;;;;;4333192;33;20656;-90
2022/10/04 12:33:01;;;;;;;4.25;1.30;;;;;;;;;;4333887;33;20224;-89
2022/10/04 12:35:36;;;;;;;1.35;1.23;;;;;;;;;;4333665;33;20226;-89
2022/10/04 12:38:22;;;;;;;2.92;1.40;;;;;;;;;;4333630;33;20522;-89
2022/10/04 12:40:56;;;;;;;2.67;1.75;;;;;;;;;;4333827;33;20629;-89
2022/10/04 12:43:33;;;;;;;1.73;1.42;;;;;;;;;;4333910;33;20364;-89
2022/10/04 12:46:12;;;;;;;3.53;1.52;;;;;;;;;;4333705;33;20222;-90
2022/10/04 12:48:53;;;;;;;4.70;1.50;;;;;;;;;;4334028;33;20215;-90
2022/10/04 12:51:37;;;;;;;1.75;1.10;;;;;;;;;;4333805;33;20691;-90
2022/10/04 12:54:21;;;;;;;1.50;1.40;;;;;;;;;;4333943;33;20352;-88
2022/10/04 12:56:55;;;;;;;2.65;1.67;;;;;;;;;;4333920;33;20237;-89
2022/10/04 12:59:40;;;;;;;4.57;1.70;;;;;;;;;;4333721;33;20238;-89
2022/10/04 13:02:26;;;;;;;2.30;1.20;;;;;;;;;;4334006;33;20219;-89
2022/10/04 13:04:58;;;;;;;2.05;1.20;;;;;;;;;;4333456;33;20312;-90
2022/10/04 13:07:47;;;;;;;2.12;1.67;;;;;;;;;;4333532;33;20225;-90
2022/10/04 13:10:47;;;;;;;1.73;1.45;;;;;;;;;;4321045;33;20401;-89
2022/10/04 13:13:48;;;;;;;2.65;1.40;;;;;;;;;;4333119;33;20724;-89
2022/10/04 13:16:26;;;;;;;1.48;1.37;;;;;;;;;;4333548;33;20216;-89
2022/10/04 13:19:00;;;;;;;9.55;1.95;;;;;;;;;;4333051;33;20245;-90
2022/10/04 13:21:56;;;;;;;4.15;1.67;;;;;;;;;;4333356;33;20198;-88
2022/10/04 13:24:29;;;;;;;4.95;1.48;;;;;;;;;;4333381;33;20384;-90
2022/10/04 13:27:03;;;;;;;3.65;1.20;;;;;;;;;;4333242;33;20242;-87
2022/10/04 13:29:36;;;;;;;1.70;1.50;;;;;;;;;;4333397;33;20640;-89
2022/10/04 13:32:11;;;;;;;6.22;1.50;;;;;;;;;;4333148;33;20233;-89
2022/10/04 13:34:45;;;;;;;4.70;1.92;;;;;;;;;;4332916;33;20211;-88
2022/10/04 13:37:31;;;;;;;3.08;2.03;;;;;;;;;;4333884;33;20211;-87
2022/10/04 13:40:31;;;;;;;6.85;2.12;;;;;;;;;;4333424;33;20219;-89
2022/10/04 13:43:27;;;;;;;2.05;1.85;;;;;;;;;;4334396;33;20232;-89
2022/10/04 13:46:07;;;;;;;2.08;1.87;;;;;;;;;;4333912;33;20293;-89
2022/10/04 13:48:49;;;;;;;3.05;1.70;;;;;;;;;;4333217;33;20712;-89
2022/10/04 13:56:35;;;;;;;3.45;1.70;;;;;;;;;;4334651;33;20257;-89
2022/10/04 13:57:31;;;;;;;13.68;2.80;;;;;;;;;;4332480;33;20205;-87
2022/10/04 14:00:04;;;;;;;5.12;2.20;;;;;;;;;;4332742;33;20219;-89
2022/10/04 14:03:22;;;;;;;4.65;2.10;;;;;;;;;;4333073;33;20199;-89
2022/10/04 14:06:22;;;;;;;10.88;2.78;;;;;;;;;;4272700;33;20271;-88
2022/10/04 14:09:22;;;;;;;4.95;1.87;;;;;;;;;;4332540;33;20270;-88
2022/10/04 14:12:24;;;;;;;3.50;1.70;;;;;;;;;;4332761;33;20301;-88
2022/10/04 14:15:22;;;;;;;4.68;2.05;;;;;;;;;;4331416;33;20782;-88
2022/10/04 14:18:17;;;;;;;4.30;2.73;;;;;;;;;;4332774;33;20211;-89
2022/10/04 14:21:21;;;;;;;7.85;3.17;;;;;;;;;;4332659;33;20353;-88
2022/10/04 14:24:23;;;;;;;4.65;3.03;;;;;;;;;;4329965;33;20692;-88
2022/10/04 14:27:26;;;;;;;3.90;2.80;;;;;;;;;;4328166;33;20660;-90
2022/10/04 14:30:11;;;;;;;5.85;3.20;;;;;;;;;;4332238;33;20249;-89
2022/10/04 14:33:35;;;;;;;5.30;3.75;;;;;;;;;;4335365;33;20238;-89
2022/10/04 14:36:27;;;;;;;4.40;3.05;;;;;;;;;;4335260;33;20553;-89
2022/10/04 14:39:09;;;;;;;10.30;3.20;;;;;;;;;;4335087;33;20369;-89
2022/10/04 14:42:02;;;;;;;4.28;3.12;;;;;;;;;;4335296;33;20646;-89
2022/10/04 14:44:58;;;;;;;4.05;3.65;;;;;;;;;;4334873;33;20211;-89
2022/10/04 14:48:13;;;;;;;4.55;3.75;;;;;;;;;;4335366;33;20215;-89
2022/10/04 14:50:57;;;;;;;5.28;3.90;;;;;;;;;;4313208;33;20237;-90
2022/10/04 14:53:31;;;;;;;11.85;5.95;;;;;;;;;;4334890;33;20794;-89
2022/10/04 14:56:25;;;;;;;7.62;5.45;;;;;;;;;;4335290;33;20229;-89
2022/10/04 14:59:07;;;;;;;15.63;4.78;;;;;;;;;;4334949;33;20223;-90
2022/10/04 15:01:39;;;;;;;9.30;4.40;;;;;;;;;;4334579;33;20286;-90
2022/10/04 15:04:18;;;;;;;5.20;4.18;;;;;;;;;;4334984;33;20230;-87
2022/10/04 15:06:49;;;;;;;7.68;3.25;;;;;;;;;;4335002;33;20277;-89
2022/10/04 15:09:45;;;;;;;11.25;3.60;;;;;;;;;;4335069;33;20227;-89
2022/10/04 15:12:44;;;;;;;5.53;3.62;;;;;;;;;;4335027;33;20200;-89
2022/10/04 15:15:53;;;;;;;7.35;3.97;;;;;;;;;;4334857;33;20211;-89
2022/10/04 15:18:32;;;;;;;7.43;3.65;;;;;;;;;;4334854;33;20219;-89
2022/10/04 15:21:02;;;;;;;6.62;3.35;;;;;;;;;;4334954;33;20207;-89
2022/10/04 15:23:42;;;;;;;6.53;3.83;;;;;;;;;;4334752;33;20227;-89
2022/10/04 15:26:50;;;;;;;8.77;3.50;;;;;;;;;;4334828;33;20225;-89
2022/10/04 15:29:23;;;;;;;9.38;3.35;;;;;;;;;;4334684;33;20598;-90
2022/10/04 15:31:57;;;;;;;5.68;4.03;;;;;;;;;;4334774;33;20219;-90
2022/10/04 15:34:33;;;;;;;10.52;3.20;;;;;;;;;;4334994;33;20256;-90
2022/10/04 15:37:24;;;;;;;3.67;2.60;;;;;;;;;;4334615;33;20199;-90
2022/10/04 15:40:15;;;;;;;6.57;3.40;;;;;;;;;;4334714;33;20273;-90
2022/10/04 15:43:02;;;;;;;6.90;3.53;;;;;;;;;;4334430;33;20229;-90
2022/10/04 15:45:50;;;;;;;4.22;3.75;;;;;;;;;;4334517;33;20199;-90
2022/10/04 15:48:53;;;;;;;3.97;3.58;;;;;;;;;;4334681;33;20223;-90
2022/10/04 15:51:41;;;;;;;7.00;3.22;;;;;;;;;;4334378;33;20628;-90
2022/10/04 15:54:32;;;;;;;5.82;3.83;;;;;;;;;;4334763;33;20219;-90
2022/10/04 15:57:18;;;;;;;4.50;2.93;;;;;;;;;;4334773;33;20211;-90
2022/10/04 15:59:52;;;;;;;7.05;3.83;;;;;;;;;;4334383;33;20294;-88
2022/10/04 16:02:45;;;;;;;7.32;4.10;;;;;;;;;;4335092;33;20199;-89
2022/10/04 16:05:25;;;;;;;8.32;4.68;;;;;;;;;;4335224;33;20267;-89
2022/10/04 16:08:18;;;;;;;4.70;4.20;;;;;;;;;;4344416;33;20604;-88
2022/10/04 16:11:27;;;;;;;8.15;5.78;;;;;;;;;;4341359;33;20306;-87
2022/10/04 16:14:08;;;;;;;6.45;5.68;;;;;;;;;;4312424;33;20336;-87